createdAt,value
2018-08-10T00:02:47.748Z,48.10
2018-08-10T00:07:50.963Z,48.10
2018-08-10T00:12:54.183Z,48.10
2018-08-10T00:17:57.407Z,48.00
2018-08-10T00:23:00.612Z,48.30
2018-08-10T00:28:03.859Z,48.20
2018-08-10T00:33:07.062Z,47.90
2018-08-10T00:38:10.258Z,47.70
2018-08-10T00:43:13.455Z,47.50
2018-08-10T00:48:16.651Z,47.10
2018-08-10T00:53:19.848Z,47.20
2018-08-10T00:58:23.755Z,46.90
2018-08-10T01:03:26.955Z,46.90
2018-08-10T01:08:30.147Z,46.70
2018-08-10T01:13:33.425Z,46.60
2018-08-10T01:18:36.547Z,46.60
2018-08-10T01:23:39.753Z,46.60
2018-08-10T01:28:43.037Z,46.70
2018-08-10T01:33:46.197Z,46.50
2018-08-10T01:38:49.405Z,46.50
2018-08-10T01:43:52.619Z,46.60
2018-08-10T01:48:55.843Z,46.50
2018-08-10T01:53:59.143Z,46.80
2018-08-10T01:59:02.367Z,46.70
2018-08-10T02:04:05.591Z,46.70
2018-08-10T02:09:09.756Z,46.90
2018-08-10T02:14:12.991Z,46.40
2018-08-10T02:19:16.220Z,46.20
2018-08-10T02:24:19.435Z,46.30
2018-08-10T02:29:22.655Z,46.30
2018-08-10T02:34:25.999Z,47.00
2018-08-10T02:39:29.206Z,46.20
2018-08-10T02:44:32.411Z,46.10
2018-08-10T02:49:35.655Z,45.40
2018-08-10T02:54:38.891Z,45.80
2018-08-10T02:59:42.676Z,45.90
2018-08-10T03:04:45.946Z,46.00
2018-08-10T03:09:49.178Z,45.90
2018-08-10T03:14:52.375Z,46.00
2018-08-10T03:19:55.596Z,45.80
2018-08-10T03:24:58.813Z,45.50
2018-08-10T03:30:02.038Z,46.10
2018-08-10T03:35:05.239Z,46.00
2018-08-10T03:40:10.284Z,46.10
2018-08-10T03:45:13.483Z,45.80
2018-08-10T03:50:16.703Z,46.10
2018-08-10T03:55:19.964Z,45.90
2018-08-10T04:00:23.187Z,45.90
2018-08-10T04:05:26.403Z,45.70
2018-08-10T04:10:29.633Z,46.00
2018-08-10T04:15:32.882Z,45.80
2018-08-10T04:20:36.111Z,46.40
2018-08-10T04:25:39.349Z,45.80
2018-08-10T04:30:42.571Z,45.60
2018-08-10T04:35:45.820Z,46.00
2018-08-10T04:40:49.071Z,46.60
2018-08-10T04:45:52.306Z,46.10
2018-08-10T04:50:55.535Z,46.20
2018-08-10T04:55:58.884Z,46.90
2018-08-10T05:01:02.096Z,46.30
2018-08-10T05:06:05.456Z,46.40
2018-08-10T05:11:08.759Z,46.40
2018-08-10T05:16:11.983Z,46.60
2018-08-10T05:21:15.196Z,46.70
2018-08-10T05:26:18.421Z,46.60
2018-08-10T05:31:21.685Z,46.60
2018-08-10T05:36:24.888Z,46.90
2018-08-10T05:41:28.099Z,46.50
2018-08-10T05:46:31.308Z,46.70
2018-08-10T05:51:34.581Z,46.90
2018-08-10T05:56:37.799Z,47.00
2018-08-10T06:01:41.022Z,47.00
2018-08-10T06:06:44.245Z,46.70
2018-08-10T06:11:47.461Z,47.60
2018-08-10T06:16:50.705Z,46.70
2018-08-10T06:21:53.916Z,46.60
2018-08-10T06:27:33.411Z,46.60
2018-08-10T06:32:36.618Z,46.60
2018-08-10T06:37:39.843Z,46.60
2018-08-10T06:42:43.071Z,46.60
2018-08-10T06:47:46.305Z,46.40
2018-08-10T06:52:49.527Z,46.50
2018-08-10T06:57:52.906Z,46.30
2018-08-10T07:02:56.214Z,46.10
2018-08-10T07:07:59.458Z,46.20
2018-08-10T07:13:02.785Z,46.20
2018-08-10T07:18:06.051Z,46.10
2018-08-10T07:23:09.392Z,46.00
2018-08-10T07:28:12.618Z,45.90
2018-08-10T07:33:15.839Z,45.50
2018-08-10T07:38:19.203Z,45.60
2018-08-10T07:43:22.425Z,45.60
2018-08-10T07:48:25.643Z,45.10
2018-08-10T07:53:28.888Z,45.30
2018-08-10T07:58:32.131Z,45.10
2018-08-10T08:03:35.404Z,45.10
2018-08-10T08:08:38.635Z,45.10
2018-08-10T08:13:41.914Z,44.80
2018-08-10T08:18:45.108Z,44.70
2018-08-10T08:23:48.335Z,44.50
2018-08-10T08:28:51.559Z,44.60
2018-08-10T08:34:05.996Z,44.50
2018-08-10T08:40:16.897Z,44.40
2018-08-10T08:46:23.477Z,44.40
2018-08-10T08:51:26.812Z,44.20
2018-08-10T08:56:40.663Z,44.20
2018-08-10T09:01:43.875Z,44.00
2018-08-10T09:06:47.108Z,43.80
2018-08-10T09:11:50.315Z,43.60
2018-08-10T09:16:53.531Z,43.50
2018-08-10T09:21:56.740Z,43.40
2018-08-10T09:27:00.513Z,43.10
2018-08-10T09:32:04.049Z,42.90
2018-08-10T09:37:08.083Z,43.00
2018-08-10T09:42:11.309Z,42.90
2018-08-10T09:47:14.511Z,42.90
2018-08-10T09:52:17.716Z,42.90
2018-08-10T09:57:20.939Z,43.00
2018-08-10T10:02:24.171Z,42.90
2018-08-10T10:07:27.392Z,42.90
2018-08-10T10:12:30.607Z,42.90
2018-08-10T10:17:33.861Z,42.70
2018-08-10T10:22:37.139Z,42.40
2018-08-10T10:27:40.356Z,42.40
2018-08-10T10:32:43.739Z,42.00
2018-08-10T10:37:46.900Z,42.10
2018-08-10T10:42:50.107Z,41.90
2018-08-10T10:47:53.316Z,41.70
2018-08-10T10:52:56.519Z,41.10
2018-08-10T10:57:59.754Z,40.70
2018-08-10T11:03:02.975Z,40.00
2018-08-10T11:08:06.392Z,39.90
2018-08-10T11:13:09.612Z,39.70
2018-08-10T11:18:12.928Z,40.30
2018-08-10T11:23:16.078Z,40.80
2018-08-10T11:28:19.316Z,40.70
2018-08-10T11:33:22.538Z,38.60
2018-08-10T11:38:25.766Z,39.20
2018-08-10T11:43:29.000Z,39.30
2018-08-10T11:48:32.231Z,38.80
2018-08-10T11:53:35.475Z,38.50
2018-08-10T11:58:38.706Z,39.90
2018-08-10T12:03:41.915Z,38.00
2018-08-10T12:08:45.114Z,37.30
2018-08-10T12:13:48.315Z,37.90
2018-08-10T12:18:51.541Z,37.30
2018-08-10T12:23:54.763Z,38.50
2018-08-10T12:28:58.038Z,38.60
2018-08-10T12:34:01.247Z,38.80
2018-08-10T12:39:08.831Z,37.00
2018-08-10T12:44:12.043Z,36.20
2018-08-10T12:49:15.264Z,34.90
2018-08-10T12:54:18.528Z,35.10
2018-08-10T12:59:21.747Z,35.60
2018-08-10T13:04:25.227Z,35.70
2018-08-10T13:09:28.471Z,34.60
2018-08-10T13:14:31.695Z,33.40
2018-08-10T13:19:34.944Z,31.70
2018-08-10T13:24:38.175Z,30.10
2018-08-10T13:29:41.409Z,30.80
2018-08-10T13:34:44.623Z,30.80
2018-08-10T13:39:48.555Z,31.00
2018-08-10T13:44:51.787Z,30.60
2018-08-10T13:49:55.056Z,31.00
2018-08-10T13:54:58.306Z,30.50
2018-08-10T14:00:01.503Z,30.80
2018-08-10T14:05:05.017Z,30.70
2018-08-10T14:10:08.275Z,30.80
2018-08-10T14:15:11.990Z,30.90
2018-08-10T14:20:15.223Z,30.70
2018-08-10T14:25:18.452Z,30.40
2018-08-10T14:30:21.675Z,30.40
2018-08-10T14:35:24.908Z,30.60
2018-08-10T14:40:28.116Z,31.40
2018-08-10T14:45:31.335Z,31.70
2018-08-10T14:50:34.559Z,31.90
2018-08-10T14:55:37.810Z,31.50
2018-08-10T15:00:41.054Z,31.30
2018-08-10T15:05:44.262Z,30.40
2018-08-10T15:10:47.471Z,30.20
2018-08-10T15:15:50.699Z,30.90
2018-08-10T15:20:54.119Z,31.20
2018-08-10T15:25:57.719Z,31.20
2018-08-10T15:31:00.926Z,30.80
2018-08-10T15:36:04.259Z,30.40
2018-08-10T15:41:07.531Z,31.00
2018-08-10T15:46:10.755Z,31.40
2018-08-10T15:51:14.027Z,31.20
2018-08-10T15:56:17.484Z,31.40
2018-08-10T16:01:20.579Z,31.50
2018-08-10T16:06:23.814Z,31.60
2018-08-10T16:11:27.049Z,31.90
2018-08-10T16:16:30.298Z,31.60
2018-08-10T16:21:33.683Z,31.60
2018-08-10T16:26:36.910Z,31.50
2018-08-10T16:31:40.256Z,32.00
2018-08-10T16:36:43.476Z,31.80
2018-08-10T16:41:46.708Z,31.70
2018-08-10T16:46:49.934Z,32.10
2018-08-10T16:51:53.195Z,32.00
2018-08-10T16:56:56.434Z,32.20
2018-08-10T17:01:59.677Z,32.40
2018-08-10T17:07:03.000Z,32.60
2018-08-10T17:12:06.679Z,32.50
2018-08-10T17:17:09.895Z,31.80
2018-08-10T17:22:13.138Z,30.60
2018-08-10T17:27:16.375Z,30.00
2018-08-10T17:32:19.616Z,30.00
2018-08-10T17:37:22.846Z,30.20
2018-08-10T17:42:26.060Z,30.00
2018-08-10T17:47:29.287Z,30.10
2018-08-10T17:52:32.502Z,30.40
2018-08-10T17:57:35.759Z,29.70
2018-08-10T18:02:39.027Z,29.80
2018-08-10T18:07:42.855Z,29.80
2018-08-10T18:12:46.178Z,29.80
2018-08-10T18:17:49.584Z,30.00
2018-08-10T18:22:53.135Z,30.00
2018-08-10T18:27:56.383Z,30.00
2018-08-10T18:32:59.636Z,30.30
2018-08-10T18:38:03.418Z,31.30
2018-08-10T18:43:06.767Z,31.70
2018-08-10T18:48:10.081Z,31.40
2018-08-10T18:53:13.370Z,31.20
2018-08-10T18:58:16.678Z,31.40
2018-08-10T19:03:19.979Z,31.70
2018-08-10T19:08:23.267Z,32.00
2018-08-10T19:13:26.483Z,32.10
2018-08-10T19:18:29.703Z,32.20
2018-08-10T19:23:32.919Z,32.10
2018-08-10T19:28:36.127Z,32.30
2018-08-10T19:33:39.361Z,32.30
2018-08-10T19:38:42.583Z,32.50
2018-08-10T19:43:45.871Z,32.60
2018-08-10T19:48:49.091Z,32.80
2018-08-10T19:53:52.307Z,33.00
2018-08-10T19:58:55.558Z,33.00
2018-08-10T20:03:58.783Z,33.10
2018-08-10T20:09:02.087Z,33.20
2018-08-10T20:14:05.371Z,33.30
2018-08-10T20:19:08.591Z,33.40
2018-08-10T20:24:11.856Z,33.50
2018-08-10T20:29:15.085Z,33.60
2018-08-10T20:34:18.652Z,33.60
2018-08-10T20:39:21.871Z,33.60
2018-08-10T20:44:25.503Z,33.80
2018-08-10T20:49:28.680Z,33.80
2018-08-10T20:54:32.079Z,33.90
2018-08-10T20:59:35.291Z,33.90
2018-08-10T21:04:38.495Z,34.20
2018-08-10T21:09:41.710Z,34.30
2018-08-10T21:14:45.983Z,34.40
2018-08-10T21:19:49.192Z,34.70
2018-08-10T21:24:52.428Z,34.70
2018-08-10T21:29:55.667Z,34.80
2018-08-10T21:34:58.886Z,34.80
2018-08-10T21:40:02.161Z,34.80
2018-08-10T21:45:05.755Z,34.90
2018-08-10T21:50:11.220Z,34.90
2018-08-10T21:55:14.473Z,35.00
2018-08-10T22:00:47.432Z,35.00
2018-08-10T22:05:50.955Z,35.00
2018-08-10T22:10:54.171Z,35.10
2018-08-10T22:16:02.950Z,35.10
2018-08-10T22:21:06.159Z,35.10
2018-08-10T22:26:09.514Z,35.10
2018-08-10T22:31:12.715Z,35.10
2018-08-10T22:36:15.939Z,35.20
2018-08-10T22:41:20.162Z,35.20
2018-08-10T22:46:23.387Z,35.10
2018-08-10T22:51:26.588Z,35.20
2018-08-10T22:56:29.811Z,35.20
2018-08-10T23:01:33.028Z,35.20
2018-08-10T23:06:36.238Z,35.30
2018-08-10T23:11:39.507Z,35.30
2018-08-10T23:16:42.738Z,35.40
2018-08-10T23:21:45.948Z,35.40
2018-08-10T23:26:49.174Z,35.40
2018-08-10T23:31:52.392Z,35.30
2018-08-10T23:36:55.619Z,35.50
2018-08-10T23:41:58.859Z,35.60
2018-08-10T23:47:02.080Z,35.50
2018-08-10T23:52:05.822Z,35.70
2018-08-10T23:57:09.056Z,35.70
